Terminal Aerodrome Forecast
Issued by NWS Quad Cities IA IL

Home | Current Version | Previous Version | Text Only | Print | Product List | Glossary On
Versions: 1 2 3 4 5 6 7 8 9 10 11 12 13 14 15 16 17 18
000
FTUS43 KDVN 241100
TAFDBQ
TAF
KDBQ 241120Z 2412/2512 04006KT P6SM SCT050
     FM250300 16006KT P6SM BKN200 PROB30 2508/2512 5SM TSRA
      BKN050CB=

USA.gov is the U.S. government's official web portal to all federal, state and local government web resources and services.